sensor_id;sensor_type;location;lat;lon;timestamp;temperature;humidity
15115;DHT22;7658;51.456;7.622;2024-02-26T00:02:24;5.00;99.90
15115;DHT22;7658;51.456;7.622;2024-02-26T00:04:49;5.10;1.00
15115;DHT22;7658;51.456;7.622;2024-02-26T00:07:16;5.10;1.00
15115;DHT22;7658;51.456;7.622;2024-02-26T00:09:42;5.10;1.00
15115;DHT22;7658;51.456;7.622;2024-02-26T00:12:08;5.10;1.00
15115;DHT22;7658;51.456;7.622;2024-02-26T00:14:34;5.00;1.00
15115;DHT22;7658;51.456;7.622;2024-02-26T00:17:00;5.00;1.00
15115;DHT22;7658;51.456;7.622;2024-02-26T00:19:26;5.00;1.00
15115;DHT22;7658;51.456;7.622;2024-02-26T00:21:51;5.00;99.90
15115;DHT22;7658;51.456;7.622;2024-02-26T00:24:19;5.00;1.00
15115;DHT22;7658;51.456;7.622;2024-02-26T00:26:45;5.00;99.90
15115;DHT22;7658;51.456;7.622;2024-02-26T00:29:10;5.00;99.90
15115;DHT22;7658;51.456;7.622;2024-02-26T00:31:37;5.00;99.90
15115;DHT22;7658;51.456;7.622;2024-02-26T00:34:06;5.00;99.90
15115;DHT22;7658;51.456;7.622;2024-02-26T00:36:31;5.00;99.90
15115;DHT22;7658;51.456;7.622;2024-02-26T00:38:57;5.00;1.00
15115;DHT22;7658;51.456;7.622;2024-02-26T00:41:23;5.00;1.00
15115;DHT22;7658;51.456;7.622;2024-02-26T00:43:49;5.10;10.40
15115;DHT22;7658;51.456;7.622;2024-02-26T00:46:14;5.10;99.90
15115;DHT22;7658;51.456;7.622;2024-02-26T00:48:40;5.10;99.90
15115;DHT22;7658;51.456;7.622;2024-02-26T00:51:06;5.10;99.90
15115;DHT22;7658;51.456;7.622;2024-02-26T00:53:34;5.10;1.00
15115;DHT22;7658;51.456;7.622;2024-02-26T00:56:00;5.20;99.90
15115;DHT22;7658;51.456;7.622;2024-02-26T00:58:27;5.10;99.90
15115;DHT22;7658;51.456;7.622;2024-02-26T01:00:53;5.10;1.00
15115;DHT22;7658;51.456;7.622;2024-02-26T01:03:19;5.10;1.00
15115;DHT22;7658;51.456;7.622;2024-02-26T01:05:45;5.10;99.90
15115;DHT22;7658;51.456;7.622;2024-02-26T01:08:11;5.00;99.90
15115;DHT22;7658;51.456;7.622;2024-02-26T01:10:36;5.00;99.90
15115;DHT22;7658;51.456;7.622;2024-02-26T01:13:02;5.10;99.90
15115;DHT22;7658;51.456;7.622;2024-02-26T01:15:28;5.10;99.90
15115;DHT22;7658;51.456;7.622;2024-02-26T01:17:54;5.10;99.90
15115;DHT22;7658;51.456;7.622;2024-02-26T01:20:20;5.10;1.00
15115;DHT22;7658;51.456;7.622;2024-02-26T01:22:46;5.10;1.00
15115;DHT22;7658;51.456;7.622;2024-02-26T01:25:12;5.10;99.90
15115;DHT22;7658;51.456;7.622;2024-02-26T01:27:38;5.10;99.90
15115;DHT22;7658;51.456;7.622;2024-02-26T01:30:05;5.10;99.90
15115;DHT22;7658;51.456;7.622;2024-02-26T01:32:32;5.10;92.60
15115;DHT22;7658;51.456;7.622;2024-02-26T01:34:58;5.00;1.00
15115;DHT22;7658;51.456;7.622;2024-02-26T01:37:23;5.00;99.90
15115;DHT22;7658;51.456;7.622;2024-02-26T01:39:49;5.00;99.90
15115;DHT22;7658;51.456;7.622;2024-02-26T01:42:15;5.00;1.00
15115;DHT22;7658;51.456;7.622;2024-02-26T01:44:41;5.00;99.90
15115;DHT22;7658;51.456;7.622;2024-02-26T01:47:10;5.00;1.00
15115;DHT22;7658;51.456;7.622;2024-02-26T01:49:37;5.00;1.00
15115;DHT22;7658;51.456;7.622;2024-02-26T01:52:04;5.00;1.00
15115;DHT22;7658;51.456;7.622;2024-02-26T01:54:31;5.00;99.90
15115;DHT22;7658;51.456;7.622;2024-02-26T01:56:58;5.00;99.90
15115;DHT22;7658;51.456;7.622;2024-02-26T01:59:24;5.00;1.00
15115;DHT22;7658;51.456;7.622;2024-02-26T02:01:54;5.00;1.00
15115;DHT22;7658;51.456;7.622;2024-02-26T02:04:22;4.90;1.00
15115;DHT22;7658;51.456;7.622;2024-02-26T02:06:48;4.90;1.00
15115;DHT22;7658;51.456;7.622;2024-02-26T02:09:14;5.00;99.90
15115;DHT22;7658;51.456;7.622;2024-02-26T02:11:40;4.90;99.90
15115;DHT22;7658;51.456;7.622;2024-02-26T02:14:06;4.90;99.90
15115;DHT22;7658;51.456;7.622;2024-02-26T02:16:32;4.90;99.90
15115;DHT22;7658;51.456;7.622;2024-02-26T02:18:59;5.00;99.90
15115;DHT22;7658;51.456;7.622;2024-02-26T02:21:24;5.00;99.90
15115;DHT22;7658;51.456;7.622;2024-02-26T02:23:50;5.00;99.90
15115;DHT22;7658;51.456;7.622;2024-02-26T02:26:16;5.00;99.90
15115;DHT22;7658;51.456;7.622;2024-02-26T02:28:43;4.90;99.90
15115;DHT22;7658;51.456;7.622;2024-02-26T02:31:10;4.90;99.90
15115;DHT22;7658;51.456;7.622;2024-02-26T02:33:36;4.90;99.90
15115;DHT22;7658;51.456;7.622;2024-02-26T02:36:02;4.90;99.90
15115;DHT22;7658;51.456;7.622;2024-02-26T02:38:29;4.90;99.90
15115;DHT22;7658;51.456;7.622;2024-02-26T02:40:56;4.90;99.90
15115;DHT22;7658;51.456;7.622;2024-02-26T02:43:21;4.90;99.90
15115;DHT22;7658;51.456;7.622;2024-02-26T02:45:47;4.90;99.90
15115;DHT22;7658;51.456;7.622;2024-02-26T02:48:13;4.90;99.90
15115;DHT22;7658;51.456;7.622;2024-02-26T02:50:39;4.90;99.90
15115;DHT22;7658;51.456;7.622;2024-02-26T02:53:05;4.90;99.90
15115;DHT22;7658;51.456;7.622;2024-02-26T02:55:30;4.90;99.90
15115;DHT22;7658;51.456;7.622;2024-02-26T02:57:56;4.90;1.00
15115;DHT22;7658;51.456;7.622;2024-02-26T03:00:22;4.90;99.90
15115;DHT22;7658;51.456;7.622;2024-02-26T03:02:50;4.90;99.90
15115;DHT22;7658;51.456;7.622;2024-02-26T03:05:16;4.90;1.00
15115;DHT22;7658;51.456;7.622;2024-02-26T03:07:42;4.90;1.00
15115;DHT22;7658;51.456;7.622;2024-02-26T03:10:08;4.90;1.00
15115;DHT22;7658;51.456;7.622;2024-02-26T03:12:34;4.90;1.00
15115;DHT22;7658;51.456;7.622;2024-02-26T03:15:00;4.90;1.00
15115;DHT22;7658;51.456;7.622;2024-02-26T03:17:30;4.90;1.00
15115;DHT22;7658;51.456;7.622;2024-02-26T03:19:56;4.90;1.00
15115;DHT22;7658;51.456;7.622;2024-02-26T03:22:21;4.90;1.00
15115;DHT22;7658;51.456;7.622;2024-02-26T03:24:47;4.90;1.00
15115;DHT22;7658;51.456;7.622;2024-02-26T03:27:14;4.90;1.00
15115;DHT22;7658;51.456;7.622;2024-02-26T03:29:40;4.90;1.00
15115;DHT22;7658;51.456;7.622;2024-02-26T03:32:06;5.00;1.00
15115;DHT22;7658;51.456;7.622;2024-02-26T03:34:32;5.00;1.00
15115;DHT22;7658;51.456;7.622;2024-02-26T03:37:01;5.00;1.00
15115;DHT22;7658;51.456;7.622;2024-02-26T03:39:27;5.00;1.00
15115;DHT22;7658;51.456;7.622;2024-02-26T03:41:53;5.00;1.00
15115;DHT22;7658;51.456;7.622;2024-02-26T03:44:19;4.90;1.00
15115;DHT22;7658;51.456;7.622;2024-02-26T03:46:45;5.00;1.00
15115;DHT22;7658;51.456;7.622;2024-02-26T03:49:11;4.90;1.00
15115;DHT22;7658;51.456;7.622;2024-02-26T03:51:38;4.90;1.00
15115;DHT22;7658;51.456;7.622;2024-02-26T03:54:04;4.90;30.60
15115;DHT22;7658;51.456;7.622;2024-02-26T03:56:30;4.80;47.50
15115;DHT22;7658;51.456;7.622;2024-02-26T03:58:56;4.80;99.90
15115;DHT22;7658;51.456;7.622;2024-02-26T04:01:21;4.70;99.90
15115;DHT22;7658;51.456;7.622;2024-02-26T04:03:47;4.70;99.90
15115;DHT22;7658;51.456;7.622;2024-02-26T04:06:13;4.70;99.90
15115;DHT22;7658;51.456;7.622;2024-02-26T04:08:45;4.60;99.90
15115;DHT22;7658;51.456;7.622;2024-02-26T04:11:10;4.60;99.90
15115;DHT22;7658;51.456;7.622;2024-02-26T04:13:36;4.50;99.90
15115;DHT22;7658;51.456;7.622;2024-02-26T04:16:06;4.50;99.90
15115;DHT22;7658;51.456;7.622;2024-02-26T04:18:34;4.50;99.90
15115;DHT22;7658;51.456;7.622;2024-02-26T04:21:00;4.40;99.90
15115;DHT22;7658;51.456;7.622;2024-02-26T04:23:26;4.40;99.90
15115;DHT22;7658;51.456;7.622;2024-02-26T04:25:51;4.40;99.90
15115;DHT22;7658;51.456;7.622;2024-02-26T04:28:19;4.40;99.90
15115;DHT22;7658;51.456;7.622;2024-02-26T04:30:47;4.40;99.90
15115;DHT22;7658;51.456;7.622;2024-02-26T04:33:13;4.30;99.90
15115;DHT22;7658;51.456;7.622;2024-02-26T04:35:39;4.30;99.90
15115;DHT22;7658;51.456;7.622;2024-02-26T04:38:05;4.30;99.90
15115;DHT22;7658;51.456;7.622;2024-02-26T04:40:31;4.30;99.90
15115;DHT22;7658;51.456;7.622;2024-02-26T04:42:56;4.30;99.90
15115;DHT22;7658;51.456;7.622;2024-02-26T04:45:23;4.40;99.90
15115;DHT22;7658;51.456;7.622;2024-02-26T04:47:48;4.40;99.90
15115;DHT22;7658;51.456;7.622;2024-02-26T04:50:14;4.30;99.90
15115;DHT22;7658;51.456;7.622;2024-02-26T04:52:40;4.30;99.90
15115;DHT22;7658;51.456;7.622;2024-02-26T04:55:06;4.30;99.90
15115;DHT22;7658;51.456;7.622;2024-02-26T04:57:32;4.30;99.90
15115;DHT22;7658;51.456;7.622;2024-02-26T04:59:58;4.30;99.90
15115;DHT22;7658;51.456;7.622;2024-02-26T05:02:24;4.30;99.90
15115;DHT22;7658;51.456;7.622;2024-02-26T05:04:50;4.40;99.90
15115;DHT22;7658;51.456;7.622;2024-02-26T05:07:16;4.30;99.90
15115;DHT22;7658;51.456;7.622;2024-02-26T05:09:44;4.30;99.90
15115;DHT22;7658;51.456;7.622;2024-02-26T05:12:10;4.30;99.90
15115;DHT22;7658;51.456;7.622;2024-02-26T05:14:36;4.30;99.90
15115;DHT22;7658;51.456;7.622;2024-02-26T05:17:02;4.30;99.90
15115;DHT22;7658;51.456;7.622;2024-02-26T05:19:28;4.30;99.90
15115;DHT22;7658;51.456;7.622;2024-02-26T05:21:53;4.40;99.90
15115;DHT22;7658;51.456;7.622;2024-02-26T05:24:19;4.40;99.90
15115;DHT22;7658;51.456;7.622;2024-02-26T05:26:48;4.40;99.90
15115;DHT22;7658;51.456;7.622;2024-02-26T05:29:13;4.40;99.90
15115;DHT22;7658;51.456;7.622;2024-02-26T05:31:41;4.40;99.90
15115;DHT22;7658;51.456;7.622;2024-02-26T05:34:07;4.40;99.90
15115;DHT22;7658;51.456;7.622;2024-02-26T05:36:33;4.40;99.90
15115;DHT22;7658;51.456;7.622;2024-02-26T05:39:02;4.40;99.90
15115;DHT22;7658;51.456;7.622;2024-02-26T05:41:29;4.40;99.90
15115;DHT22;7658;51.456;7.622;2024-02-26T05:43:55;4.40;99.90
15115;DHT22;7658;51.456;7.622;2024-02-26T05:46:21;4.40;99.90
15115;DHT22;7658;51.456;7.622;2024-02-26T05:48:49;4.40;99.90
15115;DHT22;7658;51.456;7.622;2024-02-26T05:51:15;4.40;99.90
15115;DHT22;7658;51.456;7.622;2024-02-26T05:53:41;4.40;99.90
15115;DHT22;7658;51.456;7.622;2024-02-26T05:56:07;4.40;99.90
15115;DHT22;7658;51.456;7.622;2024-02-26T05:58:33;4.40;99.90
15115;DHT22;7658;51.456;7.622;2024-02-26T06:00:59;4.30;99.90
15115;DHT22;7658;51.456;7.622;2024-02-26T06:03:26;4.30;99.90
15115;DHT22;7658;51.456;7.622;2024-02-26T06:05:51;4.30;99.90
15115;DHT22;7658;51.456;7.622;2024-02-26T06:08:18;4.30;99.90
15115;DHT22;7658;51.456;7.622;2024-02-26T06:10:43;4.30;99.90
15115;DHT22;7658;51.456;7.622;2024-02-26T06:13:09;4.30;99.90
15115;DHT22;7658;51.456;7.622;2024-02-26T06:15:35;4.30;99.90
15115;DHT22;7658;51.456;7.622;2024-02-26T06:18:01;4.30;99.90
15115;DHT22;7658;51.456;7.622;2024-02-26T06:20:26;4.30;99.90
15115;DHT22;7658;51.456;7.622;2024-02-26T06:22:52;4.30;99.90
15115;DHT22;7658;51.456;7.622;2024-02-26T06:25:18;4.30;99.90
15115;DHT22;7658;51.456;7.622;2024-02-26T06:27:44;4.30;99.90
15115;DHT22;7658;51.456;7.622;2024-02-26T06:30:10;4.20;99.90
15115;DHT22;7658;51.456;7.622;2024-02-26T06:32:37;4.20;99.90
15115;DHT22;7658;51.456;7.622;2024-02-26T06:35:03;4.20;99.90
15115;DHT22;7658;51.456;7.622;2024-02-26T06:37:34;4.20;99.90
15115;DHT22;7658;51.456;7.622;2024-02-26T06:40:00;4.30;99.90
15115;DHT22;7658;51.456;7.622;2024-02-26T06:42:29;4.30;99.90
15115;DHT22;7658;51.456;7.622;2024-02-26T06:44:56;4.30;99.90
15115;DHT22;7658;51.456;7.622;2024-02-26T06:47:21;4.30;99.90
15115;DHT22;7658;51.456;7.622;2024-02-26T06:49:47;4.20;99.90
15115;DHT22;7658;51.456;7.622;2024-02-26T06:52:13;4.30;99.90
15115;DHT22;7658;51.456;7.622;2024-02-26T06:54:39;4.30;99.90
15115;DHT22;7658;51.456;7.622;2024-02-26T06:57:04;4.30;99.90
15115;DHT22;7658;51.456;7.622;2024-02-26T06:59:30;4.30;99.90
15115;DHT22;7658;51.456;7.622;2024-02-26T07:01:56;4.40;99.90
15115;DHT22;7658;51.456;7.622;2024-02-26T07:04:22;4.40;99.90
15115;DHT22;7658;51.456;7.622;2024-02-26T07:06:48;4.40;99.90
15115;DHT22;7658;51.456;7.622;2024-02-26T07:09:14;4.40;99.90
15115;DHT22;7658;51.456;7.622;2024-02-26T07:11:39;4.40;99.90
15115;DHT22;7658;51.456;7.622;2024-02-26T07:14:09;4.40;99.90
15115;DHT22;7658;51.456;7.622;2024-02-26T07:16:35;4.40;99.90
15115;DHT22;7658;51.456;7.622;2024-02-26T07:19:01;4.40;99.90
15115;DHT22;7658;51.456;7.622;2024-02-26T07:21:27;4.30;99.90
15115;DHT22;7658;51.456;7.622;2024-02-26T07:23:52;4.40;99.90
15115;DHT22;7658;51.456;7.622;2024-02-26T07:26:18;4.40;99.90
15115;DHT22;7658;51.456;7.622;2024-02-26T07:28:45;4.40;99.90
15115;DHT22;7658;51.456;7.622;2024-02-26T07:31:11;4.40;99.90
15115;DHT22;7658;51.456;7.622;2024-02-26T07:33:36;4.40;99.90
15115;DHT22;7658;51.456;7.622;2024-02-26T07:36:03;4.40;99.90
15115;DHT22;7658;51.456;7.622;2024-02-26T07:38:28;4.40;99.90
15115;DHT22;7658;51.456;7.622;2024-02-26T07:40:54;4.40;99.90
15115;DHT22;7658;51.456;7.622;2024-02-26T07:43:22;4.40;99.90
15115;DHT22;7658;51.456;7.622;2024-02-26T07:45:48;4.50;99.90
15115;DHT22;7658;51.456;7.622;2024-02-26T07:48:13;4.50;99.90
15115;DHT22;7658;51.456;7.622;2024-02-26T07:50:39;4.50;99.90
15115;DHT22;7658;51.456;7.622;2024-02-26T07:53:06;4.50;99.90
15115;DHT22;7658;51.456;7.622;2024-02-26T07:55:32;4.50;99.90
15115;DHT22;7658;51.456;7.622;2024-02-26T07:57:57;4.50;99.90
15115;DHT22;7658;51.456;7.622;2024-02-26T08:00:23;4.50;99.90
15115;DHT22;7658;51.456;7.622;2024-02-26T08:02:49;4.50;99.90
15115;DHT22;7658;51.456;7.622;2024-02-26T08:05:15;4.50;99.90
15115;DHT22;7658;51.456;7.622;2024-02-26T08:07:40;4.50;99.90
15115;DHT22;7658;51.456;7.622;2024-02-26T08:10:07;4.50;99.90
15115;DHT22;7658;51.456;7.622;2024-02-26T08:12:33;4.60;99.90
15115;DHT22;7658;51.456;7.622;2024-02-26T08:14:59;4.60;99.90
15115;DHT22;7658;51.456;7.622;2024-02-26T08:17:25;4.60;99.90
15115;DHT22;7658;51.456;7.622;2024-02-26T08:19:52;4.60;99.90
15115;DHT22;7658;51.456;7.622;2024-02-26T08:22:18;4.70;99.90
15115;DHT22;7658;51.456;7.622;2024-02-26T08:24:44;4.70;99.90
15115;DHT22;7658;51.456;7.622;2024-02-26T08:27:10;4.70;99.90
15115;DHT22;7658;51.456;7.622;2024-02-26T08:29:36;4.70;99.90
15115;DHT22;7658;51.456;7.622;2024-02-26T08:32:02;4.80;99.90
15115;DHT22;7658;51.456;7.622;2024-02-26T08:34:28;4.80;99.90
15115;DHT22;7658;51.456;7.622;2024-02-26T08:36:54;4.80;99.90
15115;DHT22;7658;51.456;7.622;2024-02-26T08:39:19;4.80;99.90
15115;DHT22;7658;51.456;7.622;2024-02-26T08:41:46;4.90;99.90
15115;DHT22;7658;51.456;7.622;2024-02-26T08:44:12;4.90;99.90
15115;DHT22;7658;51.456;7.622;2024-02-26T08:46:37;4.90;99.90
15115;DHT22;7658;51.456;7.622;2024-02-26T08:49:04;4.90;99.90
15115;DHT22;7658;51.456;7.622;2024-02-26T08:51:30;4.90;99.90
15115;DHT22;7658;51.456;7.622;2024-02-26T08:53:56;4.90;99.90
15115;DHT22;7658;51.456;7.622;2024-02-26T08:56:21;4.90;99.90
15115;DHT22;7658;51.456;7.622;2024-02-26T08:58:47;4.90;99.90
15115;DHT22;7658;51.456;7.622;2024-02-26T09:01:19;5.00;99.90
15115;DHT22;7658;51.456;7.622;2024-02-26T09:03:45;5.00;99.90
15115;DHT22;7658;51.456;7.622;2024-02-26T09:06:15;5.10;99.90
15115;DHT22;7658;51.456;7.622;2024-02-26T09:08:41;5.10;99.90
15115;DHT22;7658;51.456;7.622;2024-02-26T09:11:06;5.00;99.90
15115;DHT22;7658;51.456;7.622;2024-02-26T09:13:32;5.10;99.90
15115;DHT22;7658;51.456;7.622;2024-02-26T09:15:58;5.10;99.90
15115;DHT22;7658;51.456;7.622;2024-02-26T09:18:24;5.20;99.90
15115;DHT22;7658;51.456;7.622;2024-02-26T09:20:50;5.20;99.90
15115;DHT22;7658;51.456;7.622;2024-02-26T09:23:16;5.20;99.90
15115;DHT22;7658;51.456;7.622;2024-02-26T09:25:42;5.30;99.90
15115;DHT22;7658;51.456;7.622;2024-02-26T09:28:08;5.30;99.90
15115;DHT22;7658;51.456;7.622;2024-02-26T09:30:33;5.30;99.90
15115;DHT22;7658;51.456;7.622;2024-02-26T09:32:59;5.30;99.90
15115;DHT22;7658;51.456;7.622;2024-02-26T09:35:25;5.40;99.90
15115;DHT22;7658;51.456;7.622;2024-02-26T09:37:52;5.40;99.90
15115;DHT22;7658;51.456;7.622;2024-02-26T09:40:19;5.30;99.90
15115;DHT22;7658;51.456;7.622;2024-02-26T09:42:45;5.30;99.90
15115;DHT22;7658;51.456;7.622;2024-02-26T09:45:18;5.20;99.90
15115;DHT22;7658;51.456;7.622;2024-02-26T09:47:45;5.20;99.90
15115;DHT22;7658;51.456;7.622;2024-02-26T09:50:13;5.30;99.90
15115;DHT22;7658;51.456;7.622;2024-02-26T09:52:41;5.30;99.90
15115;DHT22;7658;51.456;7.622;2024-02-26T09:55:08;5.30;99.90
15115;DHT22;7658;51.456;7.622;2024-02-26T09:57:37;5.30;99.90
15115;DHT22;7658;51.456;7.622;2024-02-26T10:00:04;5.30;99.90
15115;DHT22;7658;51.456;7.622;2024-02-26T10:02:35;5.40;99.90
15115;DHT22;7658;51.456;7.622;2024-02-26T10:05:03;5.40;99.90
15115;DHT22;7658;51.456;7.622;2024-02-26T10:07:35;5.40;99.90
15115;DHT22;7658;51.456;7.622;2024-02-26T10:10:02;5.30;99.90
15115;DHT22;7658;51.456;7.622;2024-02-26T10:12:28;5.40;99.90
15115;DHT22;7658;51.456;7.622;2024-02-26T10:14:54;5.40;99.90
15115;DHT22;7658;51.456;7.622;2024-02-26T10:17:20;5.40;99.90
15115;DHT22;7658;51.456;7.622;2024-02-26T10:19:46;5.40;99.90
15115;DHT22;7658;51.456;7.622;2024-02-26T10:22:12;5.40;99.90
15115;DHT22;7658;51.456;7.622;2024-02-26T10:24:38;5.40;99.90
15115;DHT22;7658;51.456;7.622;2024-02-26T10:27:05;5.50;99.90
15115;DHT22;7658;51.456;7.622;2024-02-26T10:29:31;5.60;99.90
15115;DHT22;7658;51.456;7.622;2024-02-26T10:31:57;5.60;99.90
15115;DHT22;7658;51.456;7.622;2024-02-26T10:34:23;5.70;99.90
15115;DHT22;7658;51.456;7.622;2024-02-26T10:36:49;5.80;99.90
15115;DHT22;7658;51.456;7.622;2024-02-26T10:39:15;5.80;99.90
15115;DHT22;7658;51.456;7.622;2024-02-26T10:41:42;5.90;99.90
15115;DHT22;7658;51.456;7.622;2024-02-26T10:44:12;5.90;99.90
15115;DHT22;7658;51.456;7.622;2024-02-26T10:46:40;6.00;99.90
15115;DHT22;7658;51.456;7.622;2024-02-26T10:49:15;6.00;99.90
15115;DHT22;7658;51.456;7.622;2024-02-26T10:51:47;6.00;99.90
15115;DHT22;7658;51.456;7.622;2024-02-26T10:54:16;6.10;99.90
15115;DHT22;7658;51.456;7.622;2024-02-26T10:56:42;6.10;99.90
15115;DHT22;7658;51.456;7.622;2024-02-26T10:59:12;6.10;99.90
15115;DHT22;7658;51.456;7.622;2024-02-26T11:01:39;6.20;99.90
15115;DHT22;7658;51.456;7.622;2024-02-26T11:04:06;6.20;99.90
15115;DHT22;7658;51.456;7.622;2024-02-26T11:06:34;6.20;99.90
15115;DHT22;7658;51.456;7.622;2024-02-26T11:09:02;6.30;99.90
15115;DHT22;7658;51.456;7.622;2024-02-26T11:11:29;6.30;99.90
15115;DHT22;7658;51.456;7.622;2024-02-26T11:13:56;6.40;99.90
15115;DHT22;7658;51.456;7.622;2024-02-26T11:16:23;6.40;99.90
15115;DHT22;7658;51.456;7.622;2024-02-26T11:18:52;6.50;99.90
15115;DHT22;7658;51.456;7.622;2024-02-26T11:21:21;6.50;99.90
15115;DHT22;7658;51.456;7.622;2024-02-26T11:24:05;6.50;99.90
15115;DHT22;7658;51.456;7.622;2024-02-26T11:26:38;6.50;99.90
15115;DHT22;7658;51.456;7.622;2024-02-26T11:29:08;6.50;99.90
15115;DHT22;7658;51.456;7.622;2024-02-26T11:31:37;6.50;99.90
15115;DHT22;7658;51.456;7.622;2024-02-26T11:34:03;6.50;99.90
15115;DHT22;7658;51.456;7.622;2024-02-26T11:36:29;6.50;99.90
15115;DHT22;7658;51.456;7.622;2024-02-26T11:38:55;6.50;99.90
15115;DHT22;7658;51.456;7.622;2024-02-26T11:41:22;6.40;99.90
15115;DHT22;7658;51.456;7.622;2024-02-26T11:44:01;6.50;99.90
15115;DHT22;7658;51.456;7.622;2024-02-26T11:46:33;6.50;99.90
15115;DHT22;7658;51.456;7.622;2024-02-26T11:49:29;6.40;99.90
15115;DHT22;7658;51.456;7.622;2024-02-26T11:51:57;6.50;99.90
15115;DHT22;7658;51.456;7.622;2024-02-26T11:57:38;6.50;99.90
15115;DHT22;7658;51.456;7.622;2024-02-26T12:02:50;6.50;99.90
15115;DHT22;7658;51.456;7.622;2024-02-26T12:05:24;6.60;99.90
15115;DHT22;7658;51.456;7.622;2024-02-26T12:07:59;6.60;99.90
15115;DHT22;7658;51.456;7.622;2024-02-26T12:10:26;6.70;99.90
15115;DHT22;7658;51.456;7.622;2024-02-26T12:15:22;6.80;99.90
15115;DHT22;7658;51.456;7.622;2024-02-26T12:17:49;6.90;99.90
15115;DHT22;7658;51.456;7.622;2024-02-26T12:20:17;6.90;99.90
15115;DHT22;7658;51.456;7.622;2024-02-26T12:22:45;7.00;99.90
15115;DHT22;7658;51.456;7.622;2024-02-26T12:25:13;7.00;99.90
15115;DHT22;7658;51.456;7.622;2024-02-26T12:27:39;7.00;99.90
15115;DHT22;7658;51.456;7.622;2024-02-26T12:30:05;7.00;99.90
15115;DHT22;7658;51.456;7.622;2024-02-26T12:32:32;7.00;99.90
15115;DHT22;7658;51.456;7.622;2024-02-26T12:34:58;7.00;99.90
15115;DHT22;7658;51.456;7.622;2024-02-26T12:37:26;7.00;99.90
15115;DHT22;7658;51.456;7.622;2024-02-26T12:39:52;7.00;99.90
15115;DHT22;7658;51.456;7.622;2024-02-26T12:42:18;7.00;99.90
15115;DHT22;7658;51.456;7.622;2024-02-26T12:44:46;7.10;99.90
15115;DHT22;7658;51.456;7.622;2024-02-26T12:47:12;7.10;99.90
15115;DHT22;7658;51.456;7.622;2024-02-26T12:49:48;7.10;99.90
15115;DHT22;7658;51.456;7.622;2024-02-26T12:52:14;7.10;99.90
15115;DHT22;7658;51.456;7.622;2024-02-26T12:54:42;7.20;99.90
15115;DHT22;7658;51.456;7.622;2024-02-26T12:57:08;7.20;99.90
15115;DHT22;7658;51.456;7.622;2024-02-26T12:59:35;7.30;99.90
15115;DHT22;7658;51.456;7.622;2024-02-26T13:02:02;7.40;99.90
15115;DHT22;7658;51.456;7.622;2024-02-26T13:04:29;7.40;99.90
15115;DHT22;7658;51.456;7.622;2024-02-26T13:06:56;7.50;99.90
15115;DHT22;7658;51.456;7.622;2024-02-26T13:09:28;7.40;99.90
15115;DHT22;7658;51.456;7.622;2024-02-26T13:11:57;7.30;99.90
15115;DHT22;7658;51.456;7.622;2024-02-26T13:14:23;7.20;99.90
15115;DHT22;7658;51.456;7.622;2024-02-26T13:16:56;7.20;99.90
15115;DHT22;7658;51.456;7.622;2024-02-26T13:19:22;7.10;99.90
15115;DHT22;7658;51.456;7.622;2024-02-26T13:21:48;7.10;99.90
15115;DHT22;7658;51.456;7.622;2024-02-26T13:24:14;7.10;99.90
15115;DHT22;7658;51.456;7.622;2024-02-26T13:26:39;7.20;99.90
15115;DHT22;7658;51.456;7.622;2024-02-26T13:29:05;7.20;99.90
15115;DHT22;7658;51.456;7.622;2024-02-26T13:31:32;7.30;99.90
15115;DHT22;7658;51.456;7.622;2024-02-26T13:34:04;7.30;99.90
15115;DHT22;7658;51.456;7.622;2024-02-26T13:36:29;7.40;99.90
15115;DHT22;7658;51.456;7.622;2024-02-26T13:38:55;7.40;99.90
15115;DHT22;7658;51.456;7.622;2024-02-26T13:41:24;7.40;99.90
15115;DHT22;7658;51.456;7.622;2024-02-26T13:43:50;7.50;99.90
15115;DHT22;7658;51.456;7.622;2024-02-26T13:46:16;7.40;99.90
15115;DHT22;7658;51.456;7.622;2024-02-26T13:48:42;7.40;99.90
15115;DHT22;7658;51.456;7.622;2024-02-26T13:51:09;7.40;99.90
15115;DHT22;7658;51.456;7.622;2024-02-26T13:53:35;7.50;99.90
15115;DHT22;7658;51.456;7.622;2024-02-26T13:56:01;7.50;99.90
15115;DHT22;7658;51.456;7.622;2024-02-26T13:58:29;7.50;99.90
15115;DHT22;7658;51.456;7.622;2024-02-26T14:00:55;7.50;99.90
15115;DHT22;7658;51.456;7.622;2024-02-26T14:03:22;7.50;99.90
15115;DHT22;7658;51.456;7.622;2024-02-26T14:05:48;7.50;99.90
15115;DHT22;7658;51.456;7.622;2024-02-26T14:08:14;7.50;99.90
15115;DHT22;7658;51.456;7.622;2024-02-26T14:10:40;7.50;99.90
15115;DHT22;7658;51.456;7.622;2024-02-26T14:13:06;7.60;99.90
15115;DHT22;7658;51.456;7.622;2024-02-26T14:15:32;7.60;99.90
15115;DHT22;7658;51.456;7.622;2024-02-26T14:17:59;7.70;99.90
15115;DHT22;7658;51.456;7.622;2024-02-26T14:20:25;7.70;99.90
15115;DHT22;7658;51.456;7.622;2024-02-26T14:22:51;7.80;99.90
15115;DHT22;7658;51.456;7.622;2024-02-26T14:25:21;7.90;99.90
15115;DHT22;7658;51.456;7.622;2024-02-26T14:27:47;8.00;99.90
15115;DHT22;7658;51.456;7.622;2024-02-26T14:30:14;8.00;99.90
15115;DHT22;7658;51.456;7.622;2024-02-26T14:32:40;8.20;99.90
15115;DHT22;7658;51.456;7.622;2024-02-26T14:35:07;8.30;99.90
15115;DHT22;7658;51.456;7.622;2024-02-26T14:37:35;8.50;99.90
15115;DHT22;7658;51.456;7.622;2024-02-26T14:40:01;8.70;99.90
15115;DHT22;7658;51.456;7.622;2024-02-26T14:42:29;8.80;99.90
15115;DHT22;7658;51.456;7.622;2024-02-26T14:44:55;8.90;99.90
15115;DHT22;7658;51.456;7.622;2024-02-26T14:47:20;8.90;99.90
15115;DHT22;7658;51.456;7.622;2024-02-26T14:49:46;8.90;99.90
15115;DHT22;7658;51.456;7.622;2024-02-26T14:52:14;8.80;96.60
15115;DHT22;7658;51.456;7.622;2024-02-26T14:54:40;8.80;99.90
15115;DHT22;7658;51.456;7.622;2024-02-26T14:57:06;8.60;99.90
15115;DHT22;7658;51.456;7.622;2024-02-26T14:59:33;8.50;99.90
15115;DHT22;7658;51.456;7.622;2024-02-26T15:01:59;8.50;99.90
15115;DHT22;7658;51.456;7.622;2024-02-26T15:04:27;8.50;99.90
15115;DHT22;7658;51.456;7.622;2024-02-26T15:06:53;8.60;99.90
15115;DHT22;7658;51.456;7.622;2024-02-26T15:09:19;8.70;90.40
15115;DHT22;7658;51.456;7.622;2024-02-26T15:11:45;8.80;1.00
15115;DHT22;7658;51.456;7.622;2024-02-26T15:14:11;8.90;1.00
15115;DHT22;7658;51.456;7.622;2024-02-26T15:16:37;8.90;1.00
15115;DHT22;7658;51.456;7.622;2024-02-26T15:19:03;9.00;89.50
15115;DHT22;7658;51.456;7.622;2024-02-26T15:21:29;9.00;99.90
15115;DHT22;7658;51.456;7.622;2024-02-26T15:23:55;9.00;1.00
15115;DHT22;7658;51.456;7.622;2024-02-26T15:26:21;9.00;99.90
15115;DHT22;7658;51.456;7.622;2024-02-26T15:28:48;9.00;99.90
15115;DHT22;7658;51.456;7.622;2024-02-26T15:31:16;8.80;1.00
15115;DHT22;7658;51.456;7.622;2024-02-26T15:33:42;8.80;99.90
15115;DHT22;7658;51.456;7.622;2024-02-26T15:36:08;8.70;1.00
15115;DHT22;7658;51.456;7.622;2024-02-26T15:38:37;8.60;99.90
15115;DHT22;7658;51.456;7.622;2024-02-26T15:41:11;8.50;1.00
15115;DHT22;7658;51.456;7.622;2024-02-26T15:43:38;8.40;99.90
15115;DHT22;7658;51.456;7.622;2024-02-26T15:46:04;8.30;99.90
15115;DHT22;7658;51.456;7.622;2024-02-26T15:48:31;8.20;61.00
15115;DHT22;7658;51.456;7.622;2024-02-26T15:50:57;8.10;1.00
15115;DHT22;7658;51.456;7.622;2024-02-26T15:53:22;8.00;99.90
15115;DHT22;7658;51.456;7.622;2024-02-26T15:55:48;8.00;99.90
15115;DHT22;7658;51.456;7.622;2024-02-26T15:58:14;7.90;99.90
15115;DHT22;7658;51.456;7.622;2024-02-26T16:00:40;7.90;99.90
15115;DHT22;7658;51.456;7.622;2024-02-26T16:03:08;7.80;99.90
15115;DHT22;7658;51.456;7.622;2024-02-26T16:05:34;7.70;99.90
15115;DHT22;7658;51.456;7.622;2024-02-26T16:08:04;7.70;1.00
15115;DHT22;7658;51.456;7.622;2024-02-26T16:10:31;7.70;1.00